sensor_id;sensor_type;location;lat;lon;timestamp;P1;P2;P0
33264;PMS5003;31404;53.974;-1.086;2023-08-07T00:00:34;7;7;
33264;PMS5003;31404;53.974;-1.086;2023-08-07T00:05:34;5;5;
33264;PMS5003;31404;53.974;-1.086;2023-08-07T00:10:34;4;4;
33264;PMS5003;31404;53.974;-1.086;2023-08-07T00:15:34;11;8;
33264;PMS5003;31404;53.974;-1.086;2023-08-07T00:20:34;8;8;
33264;PMS5003;31404;53.974;-1.086;2023-08-07T00:25:34;6;6;
33264;PMS5003;31404;53.974;-1.086;2023-08-07T00:30:34;12;9;
33264;PMS5003;31404;53.974;-1.086;2023-08-07T00:35:34;8;8;
33264;PMS5003;31404;53.974;-1.086;2023-08-07T00:45:36;12;10;
33264;PMS5003;31404;53.974;-1.086;2023-08-07T00:50:34;13;12;
33264;PMS5003;31404;53.974;-1.086;2023-08-07T00:55:34;13;13;
33264;PMS5003;31404;53.974;-1.086;2023-08-07T01:00:34;7;7;
33264;PMS5003;31404;53.974;-1.086;2023-08-07T01:05:34;9;9;
33264;PMS5003;31404;53.974;-1.086;2023-08-07T01:15:34;10;10;
33264;PMS5003;31404;53.974;-1.086;2023-08-07T01:20:33;14;13;
33264;PMS5003;31404;53.974;-1.086;2023-08-07T01:25:34;11;11;
33264;PMS5003;31404;53.974;-1.086;2023-08-07T01:30:35;15;12;
33264;PMS5003;31404;53.974;-1.086;2023-08-07T01:35:35;13;11;
33264;PMS5003;31404;53.974;-1.086;2023-08-07T01:40:36;12;11;
33264;PMS5003;31404;53.974;-1.086;2023-08-07T01:45:35;12;12;
33264;PMS5003;31404;53.974;-1.086;2023-08-07T01:50:33;16;13;
33264;PMS5003;31404;53.974;-1.086;2023-08-07T01:55:34;17;12;
33264;PMS5003;31404;53.974;-1.086;2023-08-07T02:00:34;13;13;
33264;PMS5003;31404;53.974;-1.086;2023-08-07T02:05:34;15;15;
33264;PMS5003;31404;53.974;-1.086;2023-08-07T02:10:34;13;13;
33264;PMS5003;31404;53.974;-1.086;2023-08-07T02:15:34;13;13;
33264;PMS5003;31404;53.974;-1.086;2023-08-07T02:20:34;13;13;
33264;PMS5003;31404;53.974;-1.086;2023-08-07T02:25:34;13;12;
33264;PMS5003;31404;53.974;-1.086;2023-08-07T02:30:34;16;12;
33264;PMS5003;31404;53.974;-1.086;2023-08-07T02:35:33;11;11;
33264;PMS5003;31404;53.974;-1.086;2023-08-07T02:40:34;6;6;
33264;PMS5003;31404;53.974;-1.086;2023-08-07T02:45:35;11;11;
33264;PMS5003;31404;53.974;-1.086;2023-08-07T02:50:34;10;7;
33264;PMS5003;31404;53.974;-1.086;2023-08-07T02:55:34;10;9;
33264;PMS5003;31404;53.974;-1.086;2023-08-07T03:00:34;10;9;
33264;PMS5003;31404;53.974;-1.086;2023-08-07T03:05:34;10;10;
33264;PMS5003;31404;53.974;-1.086;2023-08-07T03:10:34;10;9;
33264;PMS5003;31404;53.974;-1.086;2023-08-07T03:15:34;11;9;
33264;PMS5003;31404;53.974;-1.086;2023-08-07T03:20:36;13;11;
33264;PMS5003;31404;53.974;-1.086;2023-08-07T03:25:34;9;9;
33264;PMS5003;31404;53.974;-1.086;2023-08-07T03:30:33;5;4;
33264;PMS5003;31404;53.974;-1.086;2023-08-07T03:35:33;6;6;
33264;PMS5003;31404;53.974;-1.086;2023-08-07T03:40:34;10;8;
33264;PMS5003;31404;53.974;-1.086;2023-08-07T03:45:33;9;7;
33264;PMS5003;31404;53.974;-1.086;2023-08-07T03:50:33;5;5;
33264;PMS5003;31404;53.974;-1.086;2023-08-07T03:55:34;9;9;
33264;PMS5003;31404;53.974;-1.086;2023-08-07T04:00:34;6;6;
33264;PMS5003;31404;53.974;-1.086;2023-08-07T04:05:34;5;5;
33264;PMS5003;31404;53.974;-1.086;2023-08-07T04:10:34;6;6;
33264;PMS5003;31404;53.974;-1.086;2023-08-07T04:15:34;8;8;
33264;PMS5003;31404;53.974;-1.086;2023-08-07T04:20:34;6;6;
33264;PMS5003;31404;53.974;-1.086;2023-08-07T04:25:34;10;9;
33264;PMS5003;31404;53.974;-1.086;2023-08-07T04:30:33;7;7;
33264;PMS5003;31404;53.974;-1.086;2023-08-07T04:35:34;13;7;
33264;PMS5003;31404;53.974;-1.086;2023-08-07T04:40:34;6;6;
33264;PMS5003;31404;53.974;-1.086;2023-08-07T04:45:34;7;7;
33264;PMS5003;31404;53.974;-1.086;2023-08-07T04:50:34;10;9;
33264;PMS5003;31404;53.974;-1.086;2023-08-07T04:55:34;9;9;
33264;PMS5003;31404;53.974;-1.086;2023-08-07T05:00:35;9;9;
33264;PMS5003;31404;53.974;-1.086;2023-08-07T05:05:39;5;5;
33264;PMS5003;31404;53.974;-1.086;2023-08-07T05:10:34;6;6;
33264;PMS5003;31404;53.974;-1.086;2023-08-07T05:15:34;7;7;
33264;PMS5003;31404;53.974;-1.086;2023-08-07T05:20:34;5;5;
33264;PMS5003;31404;53.974;-1.086;2023-08-07T05:25:36;7;5;
33264;PMS5003;31404;53.974;-1.086;2023-08-07T05:30:34;7;6;
33264;PMS5003;31404;53.974;-1.086;2023-08-07T05:35:35;6;6;
33264;PMS5003;31404;53.974;-1.086;2023-08-07T05:40:33;5;5;
33264;PMS5003;31404;53.974;-1.086;2023-08-07T05:45:35;9;7;
33264;PMS5003;31404;53.974;-1.086;2023-08-07T05:50:34;8;6;
33264;PMS5003;31404;53.974;-1.086;2023-08-07T05:55:34;4;4;
33264;PMS5003;31404;53.974;-1.086;2023-08-07T06:00:34;5;5;
33264;PMS5003;31404;53.974;-1.086;2023-08-07T06:05:34;4;4;
33264;PMS5003;31404;53.974;-1.086;2023-08-07T06:10:34;6;5;
33264;PMS5003;31404;53.974;-1.086;2023-08-07T06:15:34;5;3;
33264;PMS5003;31404;53.974;-1.086;2023-08-07T06:20:34;9;6;
33264;PMS5003;31404;53.974;-1.086;2023-08-07T06:25:34;3;3;
33264;PMS5003;31404;53.974;-1.086;2023-08-07T06:30:34;3;3;
33264;PMS5003;31404;53.974;-1.086;2023-08-07T06:40:34;3;3;
33264;PMS5003;31404;53.974;-1.086;2023-08-07T06:45:34;2;2;
33264;PMS5003;31404;53.974;-1.086;2023-08-07T06:50:34;2;2;
33264;PMS5003;31404;53.974;-1.086;2023-08-07T06:55:34;3;3;
33264;PMS5003;31404;53.974;-1.086;2023-08-07T07:00:34;3;3;
33264;PMS5003;31404;53.974;-1.086;2023-08-07T07:05:34;2;2;
33264;PMS5003;31404;53.974;-1.086;2023-08-07T07:10:34;3;3;
33264;PMS5003;31404;53.974;-1.086;2023-08-07T07:15:34;4;4;
33264;PMS5003;31404;53.974;-1.086;2023-08-07T07:20:35;2;2;
33264;PMS5003;31404;53.974;-1.086;2023-08-07T07:25:34;3;3;
33264;PMS5003;31404;53.974;-1.086;2023-08-07T07:30:34;2;2;
33264;PMS5003;31404;53.974;-1.086;2023-08-07T07:40:34;2;2;
33264;PMS5003;31404;53.974;-1.086;2023-08-07T07:45:34;2;2;
33264;PMS5003;31404;53.974;-1.086;2023-08-07T07:50:34;2;2;
33264;PMS5003;31404;53.974;-1.086;2023-08-07T07:55:34;1;1;
33264;PMS5003;31404;53.974;-1.086;2023-08-07T08:00:34;1;1;
33264;PMS5003;31404;53.974;-1.086;2023-08-07T08:05:34;2;2;
33264;PMS5003;31404;53.974;-1.086;2023-08-07T08:10:34;0;0;
33264;PMS5003;31404;53.974;-1.086;2023-08-07T08:15:34;1;1;
33264;PMS5003;31404;53.974;-1.086;2023-08-07T08:20:35;3;1;
33264;PMS5003;31404;53.974;-1.086;2023-08-07T08:25:34;1;1;
33264;PMS5003;31404;53.974;-1.086;2023-08-07T08:30:34;1;1;
33264;PMS5003;31404;53.974;-1.086;2023-08-07T08:35:34;2;2;
33264;PMS5003;31404;53.974;-1.086;2023-08-07T08:40:34;1;1;
33264;PMS5003;31404;53.974;-1.086;2023-08-07T08:45:34;1;1;
33264;PMS5003;31404;53.974;-1.086;2023-08-07T08:50:34;1;1;
33264;PMS5003;31404;53.974;-1.086;2023-08-07T08:55:34;5;2;
33264;PMS5003;31404;53.974;-1.086;2023-08-07T09:00:34;1;1;
33264;PMS5003;31404;53.974;-1.086;2023-08-07T09:05:34;1;1;
33264;PMS5003;31404;53.974;-1.086;2023-08-07T09:10:34;2;2;
33264;PMS5003;31404;53.974;-1.086;2023-08-07T09:15:33;2;1;
33264;PMS5003;31404;53.974;-1.086;2023-08-07T09:20:34;3;1;
33264;PMS5003;31404;53.974;-1.086;2023-08-07T09:25:34;0;0;
33264;PMS5003;31404;53.974;-1.086;2023-08-07T09:30:34;1;1;
33264;PMS5003;31404;53.974;-1.086;2023-08-07T09:35:34;2;2;
33264;PMS5003;31404;53.974;-1.086;2023-08-07T09:40:34;1;1;
33264;PMS5003;31404;53.974;-1.086;2023-08-07T09:45:34;2;2;
33264;PMS5003;31404;53.974;-1.086;2023-08-07T09:50:34;1;1;
33264;PMS5003;31404;53.974;-1.086;2023-08-07T09:55:34;1;1;
33264;PMS5003;31404;53.974;-1.086;2023-08-07T10:00:34;0;0;
33264;PMS5003;31404;53.974;-1.086;2023-08-07T10:05:33;1;1;
33264;PMS5003;31404;53.974;-1.086;2023-08-07T10:10:33;3;1;
33264;PMS5003;31404;53.974;-1.086;2023-08-07T10:15:34;2;2;
33264;PMS5003;31404;53.974;-1.086;2023-08-07T10:20:34;1;1;
33264;PMS5003;31404;53.974;-1.086;2023-08-07T10:25:34;1;1;
33264;PMS5003;31404;53.974;-1.086;2023-08-07T10:30:34;2;1;
33264;PMS5003;31404;53.974;-1.086;2023-08-07T10:35:35;1;1;
33264;PMS5003;31404;53.974;-1.086;2023-08-07T10:40:34;3;2;
33264;PMS5003;31404;53.974;-1.086;2023-08-07T10:45:35;1;1;
33264;PMS5003;31404;53.974;-1.086;2023-08-07T10:50:35;1;1;
33264;PMS5003;31404;53.974;-1.086;2023-08-07T11:00:34;1;1;
33264;PMS5003;31404;53.974;-1.086;2023-08-07T11:05:34;2;2;
33264;PMS5003;31404;53.974;-1.086;2023-08-07T11:10:34;3;1;
33264;PMS5003;31404;53.974;-1.086;2023-08-07T11:15:34;1;1;
33264;PMS5003;31404;53.974;-1.086;2023-08-07T11:20:35;0;0;
33264;PMS5003;31404;53.974;-1.086;2023-08-07T11:25:33;1;1;
33264;PMS5003;31404;53.974;-1.086;2023-08-07T11:30:33;2;2;
33264;PMS5003;31404;53.974;-1.086;2023-08-07T11:35:33;1;1;
33264;PMS5003;31404;53.974;-1.086;2023-08-07T11:40:34;2;2;
33264;PMS5003;31404;53.974;-1.086;2023-08-07T11:45:33;1;1;
33264;PMS5003;31404;53.974;-1.086;2023-08-07T11:50:34;2;2;
33264;PMS5003;31404;53.974;-1.086;2023-08-07T11:55:34;3;1;
33264;PMS5003;31404;53.974;-1.086;2023-08-07T12:00:34;2;2;
33264;PMS5003;31404;53.974;-1.086;2023-08-07T12:10:34;2;2;
33264;PMS5003;31404;53.974;-1.086;2023-08-07T12:15:33;4;4;
33264;PMS5003;31404;53.974;-1.086;2023-08-07T12:20:34;4;2;
33264;PMS5003;31404;53.974;-1.086;2023-08-07T12:25:34;1;1;
33264;PMS5003;31404;53.974;-1.086;2023-08-07T12:30:34;2;2;
33264;PMS5003;31404;53.974;-1.086;2023-08-07T12:35:34;3;3;
33264;PMS5003;31404;53.974;-1.086;2023-08-07T12:40:34;2;2;
33264;PMS5003;31404;53.974;-1.086;2023-08-07T12:45:34;5;4;
33264;PMS5003;31404;53.974;-1.086;2023-08-07T12:50:34;3;3;
33264;PMS5003;31404;53.974;-1.086;2023-08-07T12:55:34;3;3;
33264;PMS5003;31404;53.974;-1.086;2023-08-07T13:00:33;1;1;
33264;PMS5003;31404;53.974;-1.086;2023-08-07T13:05:34;3;3;
33264;PMS5003;31404;53.974;-1.086;2023-08-07T13:10:34;6;3;
33264;PMS5003;31404;53.974;-1.086;2023-08-07T13:15:34;2;2;
33264;PMS5003;31404;53.974;-1.086;2023-08-07T13:20:34;1;1;
33264;PMS5003;31404;53.974;-1.086;2023-08-07T13:25:32;3;1;
33264;PMS5003;31404;53.974;-1.086;2023-08-07T13:30:34;2;2;
33264;PMS5003;31404;53.974;-1.086;2023-08-07T13:35:34;4;3;
33264;PMS5003;31404;53.974;-1.086;2023-08-07T13:40:35;4;2;
33264;PMS5003;31404;53.974;-1.086;2023-08-07T13:45:37;2;2;
33264;PMS5003;31404;53.974;-1.086;2023-08-07T13:50:34;1;1;
33264;PMS5003;31404;53.974;-1.086;2023-08-07T13:55:34;1;1;
33264;PMS5003;31404;53.974;-1.086;2023-08-07T14:00:33;1;1;
33264;PMS5003;31404;53.974;-1.086;2023-08-07T14:05:35;1;1;
33264;PMS5003;31404;53.974;-1.086;2023-08-07T14:10:33;3;1;
33264;PMS5003;31404;53.974;-1.086;2023-08-07T14:15:34;3;1;
33264;PMS5003;31404;53.974;-1.086;2023-08-07T14:20:34;1;1;
33264;PMS5003;31404;53.974;-1.086;2023-08-07T14:25:34;5;2;
33264;PMS5003;31404;53.974;-1.086;2023-08-07T14:30:34;1;1;
33264;PMS5003;31404;53.974;-1.086;2023-08-07T14:35:34;2;2;
33264;PMS5003;31404;53.974;-1.086;2023-08-07T14:40:37;1;1;
33264;PMS5003;31404;53.974;-1.086;2023-08-07T14:45:35;1;1;
33264;PMS5003;31404;53.974;-1.086;2023-08-07T14:50:34;2;2;
33264;PMS5003;31404;53.974;-1.086;2023-08-07T14:55:34;1;1;
33264;PMS5003;31404;53.974;-1.086;2023-08-07T15:00:35;1;1;
33264;PMS5003;31404;53.974;-1.086;2023-08-07T15:10:34;2;1;
33264;PMS5003;31404;53.974;-1.086;2023-08-07T15:15:41;1;1;
33264;PMS5003;31404;53.974;-1.086;2023-08-07T15:20:34;2;2;
33264;PMS5003;31404;53.974;-1.086;2023-08-07T15:25:33;0;0;
33264;PMS5003;31404;53.974;-1.086;2023-08-07T15:30:35;1;1;
33264;PMS5003;31404;53.974;-1.086;2023-08-07T15:35:34;1;1;
33264;PMS5003;31404;53.974;-1.086;2023-08-07T15:40:34;3;3;
33264;PMS5003;31404;53.974;-1.086;2023-08-07T15:45:34;1;1;
33264;PMS5003;31404;53.974;-1.086;2023-08-07T15:50:34;0;0;
33264;PMS5003;31404;53.974;-1.086;2023-08-07T15:55:34;0;0;
33264;PMS5003;31404;53.974;-1.086;2023-08-07T16:00:34;2;1;
33264;PMS5003;31404;53.974;-1.086;2023-08-07T16:05:35;0;0;
33264;PMS5003;31404;53.974;-1.086;2023-08-07T16:10:34;0;0;
33264;PMS5003;31404;53.974;-1.086;2023-08-07T16:15:34;0;0;
33264;PMS5003;31404;53.974;-1.086;2023-08-07T16:20:34;5;2;
33264;PMS5003;31404;53.974;-1.086;2023-08-07T16:25:34;3;3;
33264;PMS5003;31404;53.974;-1.086;2023-08-07T16:30:34;0;0;
33264;PMS5003;31404;53.974;-1.086;2023-08-07T16:35:34;1;1;
33264;PMS5003;31404;53.974;-1.086;2023-08-07T16:40:34;2;2;
33264;PMS5003;31404;53.974;-1.086;2023-08-07T16:45:34;2;2;
33264;PMS5003;31404;53.974;-1.086;2023-08-07T16:50:34;2;2;
33264;PMS5003;31404;53.974;-1.086;2023-08-07T16:55:34;1;1;
33264;PMS5003;31404;53.974;-1.086;2023-08-07T17:00:34;3;1;
33264;PMS5003;31404;53.974;-1.086;2023-08-07T17:05:33;0;0;
33264;PMS5003;31404;53.974;-1.086;2023-08-07T17:10:34;3;3;
33264;PMS5003;31404;53.974;-1.086;2023-08-07T17:15:34;1;1;
33264;PMS5003;31404;53.974;-1.086;2023-08-07T17:20:34;1;0;
33264;PMS5003;31404;53.974;-1.086;2023-08-07T17:25:34;1;1;
33264;PMS5003;31404;53.974;-1.086;2023-08-07T17:30:34;0;0;
33264;PMS5003;31404;53.974;-1.086;2023-08-07T17:35:34;0;0;
33264;PMS5003;31404;53.974;-1.086;2023-08-07T17:40:34;4;2;
33264;PMS5003;31404;53.974;-1.086;2023-08-07T17:45:35;0;0;
33264;PMS5003;31404;53.974;-1.086;2023-08-07T17:50:34;1;1;
33264;PMS5003;31404;53.974;-1.086;2023-08-07T17:55:34;1;1;
33264;PMS5003;31404;53.974;-1.086;2023-08-07T18:00:35;0;0;
33264;PMS5003;31404;53.974;-1.086;2023-08-07T18:05:34;0;0;
33264;PMS5003;31404;53.974;-1.086;2023-08-07T18:10:34;0;0;
33264;PMS5003;31404;53.974;-1.086;2023-08-07T18:15:34;3;2;
33264;PMS5003;31404;53.974;-1.086;2023-08-07T18:20:34;0;0;
33264;PMS5003;31404;53.974;-1.086;2023-08-07T18:30:33;1;1;
33264;PMS5003;31404;53.974;-1.086;2023-08-07T18:35:34;1;1;
33264;PMS5003;31404;53.974;-1.086;2023-08-07T18:40:34;1;0;
33264;PMS5003;31404;53.974;-1.086;2023-08-07T18:45:34;0;0;
33264;PMS5003;31404;53.974;-1.086;2023-08-07T18:50:34;1;1;
33264;PMS5003;31404;53.974;-1.086;2023-08-07T18:55:34;0;0;
33264;PMS5003;31404;53.974;-1.086;2023-08-07T19:00:34;1;1;
33264;PMS5003;31404;53.974;-1.086;2023-08-07T19:05:34;0;0;
33264;PMS5003;31404;53.974;-1.086;2023-08-07T19:10:34;0;0;
33264;PMS5003;31404;53.974;-1.086;2023-08-07T19:15:34;1;1;
33264;PMS5003;31404;53.974;-1.086;2023-08-07T19:20:34;0;0;
33264;PMS5003;31404;53.974;-1.086;2023-08-07T19:25:34;1;0;
33264;PMS5003;31404;53.974;-1.086;2023-08-07T19:30:34;1;1;
33264;PMS5003;31404;53.974;-1.086;2023-08-07T19:35:34;2;2;
33264;PMS5003;31404;53.974;-1.086;2023-08-07T19:40:35;2;2;
33264;PMS5003;31404;53.974;-1.086;2023-08-07T19:45:34;2;0;
33264;PMS5003;31404;53.974;-1.086;2023-08-07T19:50:34;0;0;
33264;PMS5003;31404;53.974;-1.086;2023-08-07T19:55:34;0;0;
33264;PMS5003;31404;53.974;-1.086;2023-08-07T20:00:34;2;0;
33264;PMS5003;31404;53.974;-1.086;2023-08-07T20:05:35;1;1;
33264;PMS5003;31404;53.974;-1.086;2023-08-07T20:10:34;2;1;
33264;PMS5003;31404;53.974;-1.086;2023-08-07T20:15:34;4;2;
33264;PMS5003;31404;53.974;-1.086;2023-08-07T20:20:34;2;2;
33264;PMS5003;31404;53.974;-1.086;2023-08-07T20:25:33;2;2;
33264;PMS5003;31404;53.974;-1.086;2023-08-07T20:30:34;2;2;
33264;PMS5003;31404;53.974;-1.086;2023-08-07T20:35:35;3;2;
33264;PMS5003;31404;53.974;-1.086;2023-08-07T20:40:34;1;1;
33264;PMS5003;31404;53.974;-1.086;2023-08-07T20:45:35;4;4;
33264;PMS5003;31404;53.974;-1.086;2023-08-07T20:50:34;7;7;
33264;PMS5003;31404;53.974;-1.086;2023-08-07T20:55:34;4;4;
33264;PMS5003;31404;53.974;-1.086;2023-08-07T21:00:34;2;2;
33264;PMS5003;31404;53.974;-1.086;2023-08-07T21:05:33;6;6;
33264;PMS5003;31404;53.974;-1.086;2023-08-07T21:10:33;4;2;
33264;PMS5003;31404;53.974;-1.086;2023-08-07T21:15:34;7;5;
33264;PMS5003;31404;53.974;-1.086;2023-08-07T21:20:34;4;4;
33264;PMS5003;31404;53.974;-1.086;2023-08-07T21:25:34;4;4;
33264;PMS5003;31404;53.974;-1.086;2023-08-07T21:30:34;2;2;
33264;PMS5003;31404;53.974;-1.086;2023-08-07T21:35:34;5;3;
33264;PMS5003;31404;53.974;-1.086;2023-08-07T21:40:36;1;1;
33264;PMS5003;31404;53.974;-1.086;2023-08-07T21:45:33;1;1;
33264;PMS5003;31404;53.974;-1.086;2023-08-07T21:50:34;3;3;
33264;PMS5003;31404;53.974;-1.086;2023-08-07T21:55:34;4;4;
33264;PMS5003;31404;53.974;-1.086;2023-08-07T22:00:34;1;1;
33264;PMS5003;31404;53.974;-1.086;2023-08-07T22:05:38;1;1;
33264;PMS5003;31404;53.974;-1.086;2023-08-07T22:10:34;1;1;
33264;PMS5003;31404;53.974;-1.086;2023-08-07T22:15:33;1;1;
33264;PMS5003;31404;53.974;-1.086;2023-08-07T22:20:34;2;2;
33264;PMS5003;31404;53.974;-1.086;2023-08-07T22:25:34;2;2;
33264;PMS5003;31404;53.974;-1.086;2023-08-07T22:30:34;2;2;
33264;PMS5003;31404;53.974;-1.086;2023-08-07T22:35:34;3;1;
33264;PMS5003;31404;53.974;-1.086;2023-08-07T22:40:35;1;1;
33264;PMS5003;31404;53.974;-1.086;2023-08-07T22:45:34;3;2;
33264;PMS5003;31404;53.974;-1.086;2023-08-07T22:50:34;1;1;
33264;PMS5003;31404;53.974;-1.086;2023-08-07T22:55:34;1;1;
33264;PMS5003;31404;53.974;-1.086;2023-08-07T23:00:35;1;1;
33264;PMS5003;31404;53.974;-1.086;2023-08-07T23:05:34;3;3;
33264;PMS5003;31404;53.974;-1.086;2023-08-07T23:10:34;3;1;
33264;PMS5003;31404;53.974;-1.086;2023-08-07T23:15:34;1;1;
33264;PMS5003;31404;53.974;-1.086;2023-08-07T23:20:34;1;1;
33264;PMS5003;31404;53.974;-1.086;2023-08-07T23:25:34;3;1;
33264;PMS5003;31404;53.974;-1.086;2023-08-07T23:30:34;2;2;
33264;PMS5003;31404;53.974;-1.086;2023-08-07T23:35:34;2;2;
33264;PMS5003;31404;53.974;-1.086;2023-08-07T23:40:36;1;1;
33264;PMS5003;31404;53.974;-1.086;2023-08-07T23:45:35;2;2;
33264;PMS5003;31404;53.974;-1.086;2023-08-07T23:50:34;4;2;
33264;PMS5003;31404;53.974;-1.086;2023-08-07T23:55:34;3;3;
